Currently 49°F in Perris, California, USA
49°F
56°F / 49°F
calm
0.00"
Saturday, March 6, 2021 2:34 AM PST

Perris, California Weather Summary
Last 36 Hours

Temperature Winds Hourly Humidity Dewpoint
Time Report Norm Report Norm Max Gusts Precip. Rpt. Norm Rpt. Norm Pressure
1,3Sat 02:34 AM  48.8°F  49°F  calm  1 mph  none  0.00"  72%  77%  40°F  42°F  30.03"
Sat 02:00 AM  50.5°F  49°F  calm  1 mph  none  0.00"  69%  76%  40°F  42°F  30.03"
Sat 01:00 AM  55.2°F  50°F  calm  1 mph  2 mph  0.00"  59%  74%  40°F  42°F  30.03"
2Sat 12:19 AM  56.0°F  51°F  calm  1 mph  none  ----  53%  72%  38°F  42°F  30.04"
Sat 12:00 AM  55.6°F  52°F  calm  1 mph  9 mph  0.00"  54%  71%  39°F  42°F  30.04"
Fri 11:00 PM  57.1°F  53°F  calm  2 mph  none  0.00"  50%  69%  38°F  42°F  30.04"
Fri 10:00 PM  60.2°F  54°F  calm  2 mph  none  0.00"  42%  66%  36°F  43°F  30.05"
Fri 09:00 PM  62.1°F  55°F  calm  2 mph  2 mph  0.00"  43%  63%  38°F  43°F  30.04"
Fri 08:00 PM  63.3°F  57°F  calm  3 mph  3 mph  0.00"  43%  60%  39°F  42°F  30.03"
Fri 07:00 PM  66.2°F  59°F  calm  3 mph  7 mph  0.00"  33%  56%  35°F  42°F  30.00"
Fri 06:00 PM  70.0°F  61°F  calm  4 mph  7 mph  0.00"  29%  50%  35°F  42°F  29.99"
Fri 05:00 PM  75.6°F  64°F  calm  4 mph  9 mph  0.00"  23%  45%  34°F  41°F  29.98"
Fri 04:00 PM  80.4°F  66°F  calm  4 mph  5 mph  0.00"  13%  41%  23°F  41°F  29.99"
Fri 03:00 PM  79.4°F  67°F  calm  4 mph  5 mph  0.00"  14%  39%  24°F  40°F  30.02"
Fri 02:00 PM  80.1°F  67°F  calm  4 mph  5 mph  0.00"  15%  39%  26°F  40°F  30.05"
Fri 01:00 PM  78.7°F  66°F  1 mph W  4 mph  9 mph  0.00"  15%  41%  25°F  41°F  30.08"
Fri 12:00 PM  78.6°F  65°F  calm  3 mph  9 mph  0.00"  17%  43%  29°F  41°F  30.12"
Fri 11:00 AM  73.1°F  63°F  calm  3 mph  none  0.00"  24%  49%  33°F  43°F  30.16"
Fri 10:00 AM  68.4°F  59°F  calm  3 mph  1 mph  0.00"  33%  58%  37°F  44°F  30.17"
Fri 09:00 AM  61.1°F  54°F  calm  2 mph  none  0.00"  55%  70%  44°F  44°F  30.20"
Fri 08:00 AM  48.7°F  49°F  calm  2 mph  5 mph  0.00"  83%  79%  44°F  43°F  30.22"
Fri 07:00 AM  41.6°F  46°F  calm  1 mph  3 mph  0.00"  91%  81%  39°F  40°F  30.22"
Fri 06:00 AM  41.7°F  46°F  calm  1 mph  6 mph  0.00"  92%  80%  40°F  40°F  30.20"
Fri 05:00 AM  43.3°F  47°F  calm  1 mph  none  0.00"  90%  79%  41°F  40°F  30.20"
Fri 04:00 AM  44.5°F  47°F  calm  1 mph  1 mph  0.00"  89%  79%  41°F  41°F  30.20"
Fri 03:00 AM  45.8°F  48°F  calm  1 mph  none  0.00"  88%  78%  42°F  41°F  30.19"
Fri 02:00 AM  47.7°F  49°F  calm  1 mph  none  0.00"  83%  76%  42°F  42°F  30.21"
Fri 01:00 AM  48.4°F  50°F  calm  1 mph  none  0.00"  81%  74%  42°F  42°F  30.22"
Fri 12:00 AM  50.6°F  51°F  calm  1 mph  none  0.00"  78%  71%  44°F  42°F  30.22"
Thu 11:00 PM  52.1°F  53°F  calm  2 mph  none  0.00"  77%  69%  45°F  42°F  30.24"
Thu 10:00 PM  55.4°F  54°F  calm  2 mph  5 mph  0.00"  69%  67%  45°F  42°F  30.24"
Thu 09:00 PM  56.4°F  55°F  calm  2 mph  none  0.00"  67%  64%  45°F  42°F  30.24"
Thu 08:00 PM  57.8°F  56°F  calm  3 mph  6 mph  0.00"  63%  61%  45°F  42°F  30.23"
Thu 07:00 PM  59.8°F  58°F  calm  3 mph  none  0.00"  56%  57%  44°F  42°F  30.21"
Thu 06:00 PM  62.4°F  60°F  calm  3 mph  none  0.00"  51%  52%  43°F  42°F  30.19"
Thu 05:00 PM  64.8°F  64°F  calm  4 mph  10 mph  0.00"  45%  46%  42°F  42°F  30.18"
Thu 04:00 PM  67.0°F  66°F  calm  4 mph  9 mph  0.00"  42%  42%  43°F  41°F  30.18"
Thu 03:00 PM  67.7°F  66°F  1 mph W  4 mph  5 mph  0.00"  37%  41%  39°F  41°F  30.19"

  1. Current weather data. No green row appears if the current weather data is also the high or low for the current day.
  2. High temperature for the current day.
  3. Low temperature for the current day.

The Perris, California weather pages are a service of WeatherCurrents. Perris is located in Southern California's Inland Empire, south of Riverside and north of Sun City, along the Interstate 215 freeway.
Copyright ©2021  WeatherCurrents. All rights reserved. - Submit questions and comments - Privacy Policy

This page automatically refreshes every 10 minutes.